createdAt,value
2022-08-07T09:19:56.004Z,43.3
2022-08-07T09:25:20.717Z,43.4
2022-08-07T09:30:47.621Z,43.3
2022-08-07T09:36:10.135Z,43.6
2022-08-07T09:42:07.780Z,43.4
2022-08-07T09:48:11.945Z,40.6
2022-08-07T09:53:59.367Z,41.6
2022-08-07T09:59:29.818Z,41.6
2022-08-07T10:05:15.190Z,41.9
2022-08-07T10:12:05.631Z,41.2
2022-08-07T10:18:03.976Z,42.4
2022-08-07T10:24:10.206Z,42.1
2022-08-07T10:29:35.118Z,42.4
2022-08-07T10:35:01.597Z,42
2022-08-07T10:40:31.331Z,41.9
2022-08-07T10:45:59.476Z,41.3
2022-08-07T10:52:13.910Z,41.2
2022-08-07T10:57:37.567Z,41.2
2022-08-07T11:02:59.733Z,41.6
2022-08-07T11:08:30.395Z,41.9
2022-08-07T11:15:01.189Z,42
2022-08-07T11:20:22.660Z,41.9
2022-08-07T11:25:50.895Z,42.2
2022-08-07T11:31:12.169Z,42.7
2022-08-07T11:36:31.466Z,42.1
2022-08-07T11:42:03.936Z,41.2
2022-08-07T11:48:02.717Z,41.6
2022-08-07T11:53:26.203Z,41.2
2022-08-07T11:58:50.505Z,41.3
2022-08-07T12:04:09.127Z,41.2
2022-08-07T12:09:32.032Z,42.1
2022-08-07T12:15:01.930Z,42.5
2022-08-07T12:20:32.911Z,42.2
2022-08-07T12:26:35.536Z,42.1
2022-08-07T12:32:07.020Z,42.5
2022-08-07T12:38:47.362Z,42.5
2022-08-07T12:44:17.719Z,42.1
2022-08-07T12:50:00.392Z,42.4
2022-08-07T12:56:04.013Z,43
2022-08-07T13:01:32.985Z,42.4
2022-08-07T13:07:02.458Z,42.8
2022-08-07T13:12:24.308Z,43.3
2022-08-07T13:17:45.162Z,43.7
2022-08-07T13:24:05.020Z,42.2
2022-08-07T13:29:07.962Z,42.8
2022-08-07T13:34:36.094Z,42.1
2022-08-07T13:40:43.512Z,42.6
2022-08-07T13:46:32.750Z,42.1
2022-08-07T13:52:39.783Z,41.7
2022-08-07T13:58:03.049Z,43.5
2022-08-07T14:04:09.655Z,42.9
2022-08-07T14:10:24.431Z,42.6
2022-08-07T14:15:52.008Z,42.8
2022-08-07T14:22:10.675Z,42.6
2022-08-07T14:28:14.385Z,42.2
2022-08-07T14:33:45.780Z,42.5
2022-08-07T14:39:07.013Z,41.8
2022-08-07T14:44:30.614Z,42.9
2022-08-07T14:49:59.619Z,42.6
2022-08-07T14:55:19.274Z,42.1
2022-08-07T15:00:37.751Z,41.3
2022-08-07T15:06:04.672Z,41.7
2022-08-07T15:12:01.739Z,42.9
2022-08-07T15:17:22.835Z,43.5
2022-08-07T15:57:49.355Z,46.3
2022-08-07T16:03:54.356Z,41.3
2022-08-07T16:09:42.364Z,41.5
2022-08-07T16:15:00.402Z,41.1
2022-08-07T16:20:37.368Z,41.2
2022-08-07T16:25:56.846Z,41.9
2022-08-07T16:32:01.443Z,40.6
2022-08-07T16:38:11.598Z,40.2
2022-08-07T16:45:14.469Z,41.4
2022-08-07T16:52:02.141Z,41.5
2022-08-07T16:58:08.150Z,44.2
2022-08-07T17:04:00.633Z,43.9
2022-08-07T17:10:33.674Z,43.8
2022-08-07T17:15:52.484Z,43.7
2022-08-07T17:21:23.579Z,43.6
2022-08-07T17:26:52.055Z,42.7
2022-08-07T17:32:35.894Z,42.4
2022-08-07T17:38:35.869Z,43.7
2022-08-07T17:44:14.090Z,43.2
2022-08-07T17:49:48.481Z,43.2
2022-08-07T17:55:07.755Z,42.6
2022-08-07T18:00:49.580Z,42.7
2022-08-07T18:06:38.232Z,43.2
2022-08-07T18:12:30.898Z,44.6
2022-08-07T18:22:00.586Z,45
2022-08-07T18:27:21.847Z,43.4
2022-08-07T18:32:47.093Z,42.8
2022-08-07T18:40:17.887Z,42.7
2022-08-07T18:46:27.461Z,44.1
2022-08-07T18:53:01.586Z,44.2
2022-08-07T18:58:23.844Z,45
2022-08-07T19:03:52.164Z,44.6
2022-08-07T19:09:59.652Z,44.7
2022-08-07T19:17:11.723Z,43.1
2022-08-07T19:22:38.237Z,43.4
2022-08-07T19:32:17.341Z,43.9
2022-08-07T19:37:58.638Z,44.1
2022-08-07T19:43:52.233Z,43.5
2022-08-07T19:49:16.507Z,43.8
2022-08-07T19:54:57.546Z,43
2022-08-07T20:00:29.921Z,43.6
2022-08-07T20:06:02.564Z,44.1
2022-08-07T20:12:36.031Z,44
2022-08-07T20:18:04.621Z,44.6
2022-08-07T20:23:54.449Z,44.2
2022-08-07T20:30:00.261Z,43.2
2022-08-07T20:35:27.746Z,43.9
2022-08-07T20:40:53.335Z,43.9
2022-08-07T20:46:43.062Z,44.2
2022-08-07T20:52:17.179Z,44.3
2022-08-07T20:58:09.122Z,43.9
2022-08-07T21:03:40.187Z,44.1
2022-08-07T21:09:15.416Z,43.5
2022-08-07T21:14:35.601Z,44.4
2022-08-07T21:20:06.479Z,44.5
2022-08-07T21:25:42.567Z,45.1
2022-08-07T21:31:02.660Z,44.5
2022-08-07T21:36:33.072Z,44.7
2022-08-07T21:42:10.857Z,44.7
2022-08-07T21:47:51.641Z,44.1
2022-08-07T21:53:10.366Z,43.8
2022-08-07T21:58:33.505Z,44
2022-08-07T22:03:37.283Z,45.1
2022-08-07T22:08:56.058Z,45.5
2022-08-07T22:14:05.330Z,45
2022-08-07T22:19:37.137Z,45.1
2022-08-07T22:24:55.548Z,44.8
2022-08-07T22:30:15.853Z,45.7
2022-08-07T22:35:41.542Z,45.3
2022-08-07T22:41:07.407Z,45.8
2022-08-07T22:47:09.612Z,45.2
2022-08-07T22:52:45.778Z,45.8
2022-08-07T22:58:04.589Z,45.5
2022-08-07T23:03:29.221Z,44.5
2022-08-07T23:10:00.562Z,44.8
2022-08-07T23:16:54.247Z,46
2022-08-07T23:22:14.656Z,45.1
2022-08-07T23:28:28.200Z,44.9
2022-08-07T23:34:40.487Z,45.7
2022-08-07T23:39:59.273Z,45.5
2022-08-07T23:46:11.261Z,45.4
2022-08-07T23:53:21.195Z,45.6
2022-08-07T23:58:45.296Z,45.5
